createdAt,value
2023-03-13T00:00:20.845Z,6.35
2023-03-13T00:01:54.199Z,5.78
2023-03-13T00:03:29.035Z,5.88
2023-03-13T00:05:02.253Z,10.60
2023-03-13T00:06:38.494Z,4.90
2023-03-13T00:08:13.524Z,6.22
2023-03-13T00:11:19.950Z,7.20
2023-03-13T00:12:53.405Z,11.02
2023-03-13T00:14:26.767Z,9.30
2023-03-13T00:16:05.197Z,8.88
2023-03-13T00:17:38.307Z,9.50
2023-03-13T00:19:11.860Z,9.13
2023-03-13T00:20:44.051Z,7.20
2023-03-13T00:22:17.325Z,4.57
2023-03-13T00:23:52.195Z,6.80
2023-03-13T00:27:02.973Z,7.93
2023-03-13T00:28:38.469Z,5.63
2023-03-13T00:30:13.842Z,9.35
2023-03-13T00:31:47.020Z,6.25
2023-03-13T00:33:19.154Z,8.73
2023-03-13T00:34:53.327Z,5.15
2023-03-13T00:36:29.964Z,5.28
2023-03-13T00:38:02.104Z,9.05
2023-03-13T00:39:36.870Z,4.63
2023-03-13T00:41:13.236Z,5.53
2023-03-13T00:42:46.621Z,9.10
2023-03-13T00:44:20.010Z,9.30
2023-03-13T00:45:54.218Z,7.40
2023-03-13T00:47:27.870Z,7.30
2023-03-13T00:49:01.010Z,9.98
2023-03-13T00:50:33.148Z,6.15
2023-03-13T00:52:07.175Z,7.32
2023-03-13T00:53:41.030Z,7.10
2023-03-13T00:55:15.743Z,7.22
2023-03-13T00:56:48.868Z,5.63
2023-03-13T00:58:22.389Z,7.05
2023-03-13T00:59:55.692Z,8.48
2023-03-13T01:01:31.833Z,4.32
2023-03-13T01:03:04.392Z,4.43
2023-03-13T01:04:38.497Z,8.98
2023-03-13T01:06:16.189Z,5.35
2023-03-13T01:07:49.325Z,6.82
2023-03-13T01:09:22.472Z,6.63
2023-03-13T01:11:01.006Z,8.48
2023-03-13T01:12:34.278Z,5.15
2023-03-13T01:14:10.385Z,5.72
2023-03-13T01:15:42.654Z,8.10
2023-03-13T01:17:15.851Z,6.35
2023-03-13T01:18:52.745Z,4.75
2023-03-13T01:20:25.933Z,8.82
2023-03-13T01:21:59.288Z,5.80
2023-03-13T01:23:32.620Z,7.35
2023-03-13T01:25:07.094Z,8.05
2023-03-13T01:26:42.858Z,4.72
2023-03-13T01:28:15.173Z,3.38
2023-03-13T01:29:48.354Z,7.38
2023-03-13T01:31:23.954Z,6.45
2023-03-13T01:32:57.748Z,6.70
2023-03-13T01:34:30.839Z,6.50
2023-03-13T01:36:04.758Z,8.95
2023-03-13T01:37:37.885Z,7.72
2023-03-13T01:39:11.224Z,7.85
2023-03-13T01:40:46.788Z,8.48
2023-03-13T01:42:21.293Z,5.70
2023-03-13T01:43:56.452Z,5.47
2023-03-13T01:45:57.934Z,5.43
2023-03-13T01:47:33.272Z,6.45
2023-03-13T01:49:20.494Z,6.32
2023-03-13T01:51:06.888Z,6.70
2023-03-13T01:52:40.371Z,4.05
2023-03-13T01:54:26.562Z,6.50
2023-03-13T01:56:03.427Z,9.02
2023-03-13T01:57:43.746Z,6.30
2023-03-13T01:59:23.856Z,8.40
2023-03-13T02:02:32.903Z,7.78
2023-03-13T02:04:07.601Z,6.53
2023-03-13T02:05:43.679Z,9.48
2023-03-13T02:07:23.065Z,6.97
2023-03-13T02:09:00.048Z,7.47
2023-03-13T02:10:37.186Z,5.85
2023-03-13T02:12:15.177Z,7.28
2023-03-13T02:13:52.218Z,7.97
2023-03-13T02:15:29.415Z,5.85
2023-03-13T02:17:05.459Z,6.35
2023-03-13T02:18:38.754Z,7.28
2023-03-13T02:20:16.785Z,9.52
2023-03-13T02:22:00.563Z,7.32
2023-03-13T02:23:41.791Z,6.72
2023-03-13T02:27:05.028Z,4.25
2023-03-13T02:28:40.675Z,6.07
2023-03-13T02:30:18.028Z,5.75
2023-03-13T02:31:52.246Z,4.32
2023-03-13T02:33:31.369Z,7.13
2023-03-13T02:35:11.002Z,3.63
2023-03-13T02:36:46.734Z,7.15
2023-03-13T02:38:25.542Z,8.85
2023-03-13T02:40:04.837Z,7.82
2023-03-13T02:41:38.415Z,6.38
2023-03-13T02:43:17.970Z,7.80
2023-03-13T02:44:52.104Z,6.80
2023-03-13T02:46:25.215Z,4.35
2023-03-13T02:48:00.191Z,6.43
2023-03-13T02:49:33.635Z,4.18
2023-03-13T02:51:19.456Z,7.05
2023-03-13T02:52:57.638Z,5.22
2023-03-13T02:54:38.257Z,6.18
2023-03-13T02:56:15.451Z,4.93
2023-03-13T02:57:49.516Z,4.10
2023-03-13T02:59:23.129Z,3.70
2023-03-13T03:00:57.532Z,4.75
2023-03-13T03:02:30.892Z,6.00
2023-03-13T03:04:05.999Z,6.00
2023-03-13T03:05:39.194Z,6.47
2023-03-13T03:07:12.590Z,6.38
2023-03-13T03:08:46.148Z,5.32
2023-03-13T03:10:19.458Z,6.20
2023-03-13T03:11:52.827Z,5.38
2023-03-13T03:13:27.100Z,4.72
2023-03-13T03:15:01.732Z,4.78
2023-03-13T03:16:35.114Z,5.65
2023-03-13T03:18:11.023Z,2.28
2023-03-13T03:19:44.149Z,3.78
2023-03-13T03:21:17.708Z,5.68
2023-03-13T03:22:50.832Z,3.63
2023-03-13T03:24:23.950Z,3.45
2023-03-13T03:25:57.280Z,5.30
2023-03-13T03:27:31.863Z,3.55
2023-03-13T03:30:39.877Z,3.95
2023-03-13T03:32:13.054Z,3.58
2023-03-13T03:33:47.125Z,5.03
2023-03-13T03:35:22.325Z,5.20
2023-03-13T03:36:55.684Z,5.32
2023-03-13T03:38:29.308Z,5.80
2023-03-13T03:40:02.442Z,4.90
2023-03-13T03:41:38.062Z,6.03
2023-03-13T03:43:12.044Z,4.78
2023-03-13T03:44:44.421Z,2.88
2023-03-13T03:46:20.406Z,1.75
2023-03-13T03:47:53.568Z,2.50
2023-03-13T03:49:26.786Z,3.30
2023-03-13T03:51:00.290Z,4.70
2023-03-13T03:52:33.875Z,2.40
2023-03-13T03:54:07.130Z,2.95
2023-03-13T03:55:41.050Z,4.10
2023-03-13T03:57:13.320Z,5.55
2023-03-13T03:58:49.487Z,3.22
2023-03-13T04:00:59.155Z,4.95
2023-03-13T04:04:08.020Z,2.33
2023-03-13T04:05:42.238Z,1.88
2023-03-13T04:07:15.822Z,2.83
2023-03-13T04:08:50.215Z,4.47
2023-03-13T04:10:26.294Z,2.03
2023-03-13T04:11:59.396Z,2.97
2023-03-13T04:13:32.633Z,3.10
2023-03-13T04:15:06.201Z,4.45
2023-03-13T04:16:39.568Z,7.03
2023-03-13T04:18:14.224Z,4.32
2023-03-13T04:19:47.372Z,3.90
2023-03-13T04:21:20.577Z,3.13
2023-03-13T04:22:58.320Z,3.25
2023-03-13T04:24:31.429Z,4.05
2023-03-13T04:26:05.195Z,3.67
2023-03-13T04:27:38.783Z,3.38
2023-03-13T04:29:12.507Z,2.88
2023-03-13T04:31:18.126Z,4.35
2023-03-13T04:33:18.605Z,3.20
2023-03-13T04:35:10.730Z,2.17
2023-03-13T04:37:08.936Z,1.75
2023-03-13T04:39:06.221Z,2.45
2023-03-13T04:41:03.212Z,4.28
2023-03-13T04:43:11.915Z,2.10
2023-03-13T04:44:55.973Z,1.42
2023-03-13T04:46:51.119Z,3.83
2023-03-13T04:48:57.688Z,1.75
2023-03-13T04:50:49.612Z,1.90
2023-03-13T04:52:36.922Z,2.03
2023-03-13T04:54:45.561Z,3.05
2023-03-13T04:56:43.347Z,1.42
2023-03-13T04:58:35.959Z,1.38
2023-03-13T05:00:41.859Z,1.25
2023-03-13T05:02:21.756Z,1.15
2023-03-13T05:03:54.864Z,2.00
2023-03-13T05:05:45.136Z,1.20
2023-03-13T05:07:36.732Z,1.48
2023-03-13T05:09:36.076Z,2.17
2023-03-13T05:11:25.064Z,1.45
2023-03-13T05:13:22.308Z,1.10
2023-03-13T05:15:30.830Z,1.00
2023-03-13T05:19:28.564Z,1.10
2023-03-13T05:21:29.102Z,0.60
2023-03-13T05:25:12.041Z,1.08
2023-03-13T05:27:08.446Z,0.93
2023-03-13T05:28:56.403Z,1.15
2023-03-13T05:30:42.887Z,1.73
2023-03-13T05:32:30.491Z,2.03
2023-03-13T05:34:20.535Z,0.80
2023-03-13T05:36:03.164Z,1.98
2023-03-13T05:37:53.544Z,0.93
2023-03-13T05:39:53.438Z,0.80
2023-03-13T05:41:45.636Z,1.13
2023-03-13T05:43:38.025Z,1.95
2023-03-13T05:45:25.890Z,1.10
2023-03-13T05:47:09.718Z,0.70
2023-03-13T05:49:05.965Z,1.55
2023-03-13T05:50:51.718Z,0.50
2023-03-13T05:52:47.705Z,1.05
2023-03-13T05:54:37.501Z,1.17
2023-03-13T05:57:57.718Z,1.45
2023-03-13T05:59:51.423Z,1.83
2023-03-13T06:01:50.681Z,1.00
2023-03-13T06:03:38.882Z,1.27
2023-03-13T06:05:12.621Z,0.68
2023-03-13T06:06:47.543Z,1.08
2023-03-13T06:08:21.998Z,1.35
2023-03-13T06:09:57.627Z,1.00
2023-03-13T06:13:18.716Z,1.20
2023-03-13T06:14:53.596Z,0.50
2023-03-13T06:16:30.957Z,1.40
2023-03-13T06:18:17.752Z,0.93
2023-03-13T06:19:50.928Z,2.80
2023-03-13T06:21:24.075Z,2.35
2023-03-13T06:22:57.315Z,0.90
2023-03-13T06:24:30.442Z,0.80
2023-03-13T06:26:05.526Z,0.68
2023-03-13T06:27:38.630Z,0.52
2023-03-13T06:29:12.468Z,0.80
2023-03-13T06:30:45.520Z,0.43
2023-03-13T06:32:18.659Z,0.75
2023-03-13T06:33:54.930Z,0.52
2023-03-13T06:35:28.351Z,0.82
2023-03-13T06:37:01.698Z,0.65
2023-03-13T06:38:35.964Z,0.85
2023-03-13T06:40:11.022Z,0.70
2023-03-13T06:41:45.548Z,0.68
2023-03-13T06:43:18.647Z,1.30
2023-03-13T06:44:51.763Z,1.92
2023-03-13T06:46:26.389Z,0.50
2023-03-13T06:47:59.581Z,0.60
2023-03-13T06:49:33.130Z,0.38
2023-03-13T06:51:10.823Z,1.05
2023-03-13T06:52:44.452Z,0.43
2023-03-13T06:54:17.658Z,0.52
2023-03-13T06:55:50.769Z,0.63
2023-03-13T06:57:25.532Z,0.80
2023-03-13T06:59:00.048Z,0.45
2023-03-13T07:00:34.419Z,0.45
2023-03-13T07:02:07.778Z,0.63
2023-03-13T07:03:42.340Z,0.68
2023-03-13T07:05:15.612Z,0.95
2023-03-13T07:06:48.933Z,0.85
2023-03-13T07:08:22.021Z,1.77
2023-03-13T07:09:55.079Z,2.15
2023-03-13T07:11:28.132Z,0.70
2023-03-13T07:13:02.880Z,0.90
2023-03-13T07:14:36.163Z,0.40
2023-03-13T07:16:12.569Z,0.40
2023-03-13T07:17:45.753Z,0.75
2023-03-13T07:19:19.099Z,0.52
2023-03-13T07:20:56.125Z,0.55
2023-03-13T07:22:29.246Z,0.85
2023-03-13T07:24:02.404Z,0.38
2023-03-13T07:25:35.577Z,0.50
2023-03-13T07:27:08.658Z,0.63
2023-03-13T07:28:44.388Z,0.80
2023-03-13T07:30:18.242Z,0.70
2023-03-13T07:31:51.691Z,0.60
2023-03-13T07:33:24.805Z,1.02
2023-03-13T07:34:57.909Z,0.77
2023-03-13T07:36:31.325Z,0.90
2023-03-13T07:38:04.742Z,0.50
2023-03-13T07:39:37.857Z,0.88
2023-03-13T07:41:14.137Z,0.70
2023-03-13T07:42:47.225Z,1.92
2023-03-13T07:44:21.710Z,0.70
2023-03-13T07:45:56.692Z,0.85
2023-03-13T07:47:29.828Z,2.05
2023-03-13T07:49:02.913Z,0.73
2023-03-13T07:50:36.206Z,0.98
2023-03-13T07:52:09.385Z,1.10
2023-03-13T07:53:42.496Z,0.70
2023-03-13T07:55:15.572Z,0.70
2023-03-13T07:56:48.814Z,0.80
2023-03-13T07:58:22.941Z,1.27
2023-03-13T07:59:57.628Z,1.58
2023-03-13T08:01:31.512Z,1.25
2023-03-13T08:03:06.713Z,0.77
2023-03-13T08:04:39.802Z,1.02
2023-03-13T08:06:16.860Z,2.28
2023-03-13T08:07:50.007Z,1.05
2023-03-13T08:09:23.159Z,2.55
2023-03-13T08:11:02.345Z,1.48
2023-03-13T08:12:35.440Z,1.83
2023-03-13T08:14:09.382Z,3.88
2023-03-13T08:15:43.877Z,2.70
2023-03-13T08:17:16.922Z,1.40
2023-03-13T08:18:53.628Z,1.33
2023-03-13T08:20:26.937Z,1.33
2023-03-13T08:22:00.294Z,1.88
2023-03-13T08:23:33.663Z,1.25
2023-03-13T08:25:07.588Z,1.60
2023-03-13T08:26:42.966Z,2.63
2023-03-13T08:28:16.161Z,1.48
2023-03-13T08:29:49.266Z,1.05
2023-03-13T08:31:26.347Z,1.05
2023-03-13T08:32:59.504Z,2.22
2023-03-13T08:34:35.030Z,2.28
2023-03-13T08:36:14.297Z,1.48
2023-03-13T08:37:47.449Z,2.13
2023-03-13T08:39:22.408Z,2.83
2023-03-13T08:40:58.587Z,2.45
2023-03-13T08:42:31.663Z,2.72
2023-03-13T08:44:06.094Z,1.40
2023-03-13T08:45:39.205Z,1.65
2023-03-13T08:47:13.714Z,1.38
2023-03-13T08:48:50.025Z,1.80
2023-03-13T08:50:23.404Z,1.67
2023-03-13T08:51:56.648Z,2.25
2023-03-13T08:53:30.080Z,2.17
2023-03-13T08:55:03.218Z,2.13
2023-03-13T08:56:37.534Z,3.53
2023-03-13T08:58:10.647Z,2.95
2023-03-13T08:59:43.734Z,2.85
2023-03-13T09:01:17.297Z,3.38
2023-03-13T09:02:51.860Z,2.83
2023-03-13T09:04:25.005Z,1.80
2023-03-13T09:05:58.816Z,3.55
2023-03-13T09:07:31.867Z,4.07
2023-03-13T09:09:06.865Z,2.88
2023-03-13T09:10:40.088Z,2.80
2023-03-13T09:12:28.323Z,2.72
2023-03-13T09:14:03.287Z,2.88
2023-03-13T09:15:36.653Z,3.47
2023-03-13T09:17:10.057Z,3.05
2023-03-13T09:18:45.636Z,2.28
2023-03-13T09:20:19.133Z,3.10
2023-03-13T09:21:52.364Z,3.42
2023-03-13T09:23:26.312Z,2.70
2023-03-13T09:24:59.404Z,1.95
2023-03-13T09:26:32.606Z,2.45
2023-03-13T09:28:06.473Z,2.47
2023-03-13T09:29:41.751Z,3.65
2023-03-13T09:31:17.881Z,1.95
2023-03-13T09:32:51.068Z,3.90
2023-03-13T09:34:25.753Z,3.65
2023-03-13T09:35:58.880Z,3.08
2023-03-13T09:37:32.084Z,2.33
2023-03-13T09:39:05.242Z,2.30
2023-03-13T09:40:53.597Z,2.75
2023-03-13T09:42:47.166Z,2.40
2023-03-13T09:44:26.974Z,2.10
2023-03-13T09:46:07.418Z,4.32
2023-03-13T09:47:47.356Z,2.72
2023-03-13T09:49:33.313Z,4.13
2023-03-13T09:51:16.144Z,3.88
2023-03-13T09:52:56.274Z,2.28
2023-03-13T09:54:35.943Z,3.22
2023-03-13T09:56:18.711Z,3.20
2023-03-13T09:57:56.586Z,5.03
2023-03-13T09:59:43.509Z,4.10
2023-03-13T10:01:25.768Z,5.03
2023-03-13T10:03:07.004Z,3.50
2023-03-13T10:04:48.942Z,2.58
2023-03-13T10:06:24.682Z,3.35
2023-03-13T10:08:03.056Z,2.72
2023-03-13T10:09:37.125Z,2.80
2023-03-13T10:11:20.052Z,4.60
2023-03-13T10:13:11.055Z,2.92
2023-03-13T10:14:55.076Z,2.35
2023-03-13T10:16:34.524Z,2.95
2023-03-13T10:18:19.526Z,2.80
2023-03-13T10:20:01.595Z,2.88
2023-03-13T10:21:37.689Z,2.53
2023-03-13T10:23:19.075Z,2.45
2023-03-13T10:24:59.227Z,2.00
2023-03-13T10:26:36.867Z,2.90
2023-03-13T10:28:13.556Z,3.45
2023-03-13T10:29:46.766Z,3.28
2023-03-13T10:31:30.509Z,3.10
2023-03-13T10:33:23.439Z,3.50
2023-03-13T10:35:00.769Z,4.00
2023-03-13T10:36:43.212Z,1.80
2023-03-13T10:38:24.049Z,3.67
2023-03-13T10:40:14.789Z,1.90
2023-03-13T10:41:50.361Z,2.20
2023-03-13T10:43:23.708Z,1.85
2023-03-13T10:45:01.910Z,1.77
2023-03-13T10:46:41.682Z,3.83
2023-03-13T10:48:20.261Z,2.72
2023-03-13T10:49:59.585Z,3.35
2023-03-13T10:51:40.853Z,2.42
2023-03-13T10:53:37.406Z,3.63
2023-03-13T10:55:14.447Z,1.10
2023-03-13T10:56:47.734Z,1.85
2023-03-13T10:58:28.990Z,2.45
2023-03-13T11:00:10.679Z,1.92
2023-03-13T11:01:45.090Z,1.65
2023-03-13T11:03:22.023Z,2.70
2023-03-13T11:04:55.704Z,1.85
2023-03-13T11:06:42.338Z,2.58
2023-03-13T11:08:25.399Z,2.03
2023-03-13T11:10:11.572Z,3.42
2023-03-13T11:13:37.964Z,3.45
2023-03-13T11:15:17.781Z,6.07
2023-03-13T11:16:54.341Z,10.73
2023-03-13T11:18:35.923Z,3.78
2023-03-13T11:20:24.292Z,10.15
2023-03-13T11:22:20.674Z,7.18
2023-03-13T11:24:02.726Z,6.82
2023-03-13T11:25:44.812Z,3.38
2023-03-13T11:27:30.943Z,3.90
2023-03-13T11:31:10.037Z,9.25
2023-03-13T11:34:27.558Z,9.40
2023-03-13T11:36:07.055Z,15.68
2023-03-13T11:37:46.188Z,18.67
2023-03-13T11:39:49.644Z,52.08
2023-03-13T11:41:58.314Z,19.30
2023-03-13T11:43:56.317Z,4.72
2023-03-13T11:47:57.635Z,9.38
2023-03-13T11:49:56.772Z,5.78
2023-03-13T11:51:49.252Z,6.72
2023-03-13T11:53:59.545Z,4.38
2023-03-13T11:55:48.380Z,2.90
2023-03-13T11:57:30.594Z,4.85
2023-03-13T11:59:25.725Z,3.35
2023-03-13T12:01:04.475Z,3.58
2023-03-13T12:02:42.623Z,1.70
2023-03-13T12:04:23.329Z,1.83
2023-03-13T12:06:02.259Z,2.13
2023-03-13T12:07:40.975Z,2.30
2023-03-13T12:09:28.170Z,2.55
2023-03-13T12:11:14.899Z,5.63
2023-03-13T12:12:54.936Z,1.58
2023-03-13T12:14:34.503Z,4.82
2023-03-13T12:16:15.472Z,4.03
2023-03-13T12:18:11.813Z,4.60
2023-03-13T12:19:54.846Z,3.05
2023-03-13T12:21:34.195Z,1.65
2023-03-13T12:23:31.913Z,1.48
2023-03-13T12:25:15.489Z,1.58
2023-03-13T12:26:54.305Z,1.63
2023-03-13T12:28:38.255Z,1.45
2023-03-13T12:30:27.056Z,2.17
2023-03-13T12:32:09.705Z,0.68
2023-03-13T12:33:52.240Z,1.52
2023-03-13T12:35:29.812Z,1.80
2023-03-13T12:37:13.559Z,1.00
2023-03-13T12:38:58.088Z,2.15
2023-03-13T12:40:41.182Z,1.00
2023-03-13T12:42:34.391Z,1.17
2023-03-13T12:44:15.845Z,0.93
2023-03-13T12:46:18.880Z,0.30
2023-03-13T12:48:24.350Z,1.42
2023-03-13T12:50:36.730Z,0.80
2023-03-13T12:53:01.861Z,0.75
2023-03-13T12:55:00.668Z,1.67
2023-03-13T12:57:06.150Z,1.70
2023-03-13T12:58:47.289Z,1.23
2023-03-13T13:00:24.390Z,0.57
2023-03-13T13:01:59.029Z,0.68
2023-03-13T13:03:38.516Z,0.70
2023-03-13T13:05:21.810Z,0.47
2023-03-13T13:07:02.287Z,0.60
2023-03-13T13:08:43.262Z,0.80
2023-03-13T13:10:22.678Z,0.57
2023-03-13T13:12:01.237Z,1.23
2023-03-13T13:13:41.000Z,0.50
2023-03-13T13:15:21.632Z,0.77
2023-03-13T13:17:03.511Z,0.40
2023-03-13T13:18:36.668Z,0.40
2023-03-13T13:20:49.636Z,0.50
2023-03-13T13:22:52.739Z,1.67
2023-03-13T13:24:50.262Z,0.40
2023-03-13T13:26:40.022Z,1.48
2023-03-13T13:28:30.517Z,1.00
2023-03-13T13:30:06.810Z,0.38
2023-03-13T13:31:59.572Z,4.28
2023-03-13T13:33:40.549Z,0.65
2023-03-13T13:35:36.538Z,1.90
2023-03-13T13:37:29.052Z,0.77
2023-03-13T13:39:03.402Z,0.80
2023-03-13T13:40:36.678Z,0.82
2023-03-13T13:42:48.719Z,0.90
2023-03-13T13:44:27.625Z,0.68
2023-03-13T13:46:14.450Z,1.27
2023-03-13T13:47:50.708Z,0.57
2023-03-13T13:49:29.822Z,0.65
2023-03-13T13:51:26.664Z,0.35
2023-03-13T13:53:31.775Z,0.55
2023-03-13T13:55:32.563Z,0.60
2023-03-13T13:57:13.922Z,1.30
2023-03-13T13:58:48.198Z,0.60
2023-03-13T14:00:27.514Z,1.15
2023-03-13T14:02:24.390Z,1.02
2023-03-13T14:04:14.547Z,1.10
2023-03-13T14:05:52.324Z,0.82
2023-03-13T14:07:36.173Z,1.38
2023-03-13T14:09:28.984Z,1.33
2023-03-13T14:11:22.449Z,2.92
2023-03-13T14:12:57.355Z,0.73
2023-03-13T14:14:30.509Z,0.93
2023-03-13T14:16:25.006Z,0.57
2023-03-13T14:18:01.252Z,3.85
2023-03-13T14:19:42.220Z,1.13
2023-03-13T14:21:15.383Z,1.38
2023-03-13T14:22:51.079Z,0.73
2023-03-13T14:24:24.159Z,1.92
2023-03-13T14:25:57.429Z,2.30
2023-03-13T14:27:30.613Z,1.58
2023-03-13T14:29:07.845Z,1.40
2023-03-13T14:30:44.643Z,0.77
2023-03-13T14:32:19.390Z,0.82
2023-03-13T14:35:25.796Z,3.67
2023-03-13T14:37:16.801Z,3.22
2023-03-13T14:38:57.058Z,2.45
2023-03-13T14:40:34.063Z,0.93
2023-03-13T14:42:12.466Z,1.00
2023-03-13T14:43:46.723Z,1.92
2023-03-13T14:45:28.306Z,1.20
2023-03-13T14:47:06.914Z,0.57
2023-03-13T14:48:41.899Z,0.77
2023-03-13T14:50:16.270Z,0.77
2023-03-13T14:52:00.645Z,1.13
2023-03-13T14:53:34.665Z,1.15
2023-03-13T14:55:28.253Z,1.13
2023-03-13T14:57:21.403Z,1.92
2023-03-13T14:58:54.875Z,1.63
2023-03-13T15:00:37.895Z,0.80
2023-03-13T15:02:29.826Z,0.70
2023-03-13T15:04:04.627Z,0.65
2023-03-13T15:05:36.780Z,0.50
2023-03-13T15:07:10.382Z,0.50
2023-03-13T15:08:46.880Z,0.50
2023-03-13T15:10:23.554Z,0.73
2023-03-13T15:12:02.440Z,0.77
2023-03-13T15:13:37.770Z,0.75
2023-03-13T15:15:12.459Z,0.75
2023-03-13T15:16:45.561Z,0.47
2023-03-13T15:18:22.350Z,0.65
2023-03-13T15:19:59.585Z,0.57
2023-03-13T15:21:35.887Z,0.80
2023-03-13T15:23:15.095Z,0.90
2023-03-13T15:25:03.318Z,1.60
2023-03-13T15:26:38.838Z,1.05
2023-03-13T15:28:17.896Z,1.73
2023-03-13T15:29:51.058Z,0.50
2023-03-13T15:31:29.320Z,1.35
2023-03-13T15:33:02.582Z,2.15
2023-03-13T15:34:35.840Z,1.17
2023-03-13T15:36:11.682Z,1.17
2023-03-13T15:37:44.816Z,0.90
2023-03-13T15:39:20.681Z,1.20
2023-03-13T15:40:54.696Z,1.20
2023-03-13T15:42:27.959Z,0.73
2023-03-13T15:44:01.614Z,1.10
2023-03-13T15:45:36.706Z,1.52
2023-03-13T15:47:13.212Z,2.65
2023-03-13T15:48:46.308Z,0.73
2023-03-13T15:50:25.452Z,2.70
2023-03-13T15:51:59.892Z,0.77
2023-03-13T15:53:36.159Z,1.55
2023-03-13T15:55:12.196Z,1.77
2023-03-13T15:56:45.412Z,1.25
2023-03-13T15:58:24.236Z,0.90
2023-03-13T16:00:05.336Z,1.25
2023-03-13T16:01:39.229Z,1.25
2023-03-13T16:03:20.439Z,1.60
2023-03-13T16:05:04.926Z,1.35
2023-03-13T16:06:41.403Z,0.32
2023-03-13T16:08:34.628Z,0.60
2023-03-13T16:10:22.045Z,2.28
2023-03-13T16:12:04.756Z,1.23
2023-03-13T16:13:47.586Z,1.35
2023-03-13T16:15:31.432Z,1.67
2023-03-13T16:17:28.728Z,0.95
2023-03-13T16:19:04.170Z,1.40
2023-03-13T16:20:37.385Z,1.23
2023-03-13T16:22:10.732Z,0.75
2023-03-13T16:23:45.501Z,3.47
2023-03-13T16:26:52.135Z,0.68
2023-03-13T16:28:25.239Z,1.65
2023-03-13T16:29:58.405Z,1.73
2023-03-13T16:31:33.800Z,1.77
2023-03-13T16:33:09.288Z,0.80
2023-03-13T16:34:53.058Z,2.25
2023-03-13T16:36:31.032Z,1.27
2023-03-13T16:38:04.541Z,1.42
2023-03-13T16:39:39.061Z,1.60
2023-03-13T16:41:17.554Z,1.08
2023-03-13T16:42:50.987Z,0.60
2023-03-13T16:44:26.414Z,1.60
2023-03-13T16:46:00.545Z,1.23
2023-03-13T16:47:35.466Z,0.38
2023-03-13T16:49:15.389Z,1.50
2023-03-13T16:50:48.439Z,1.10
2023-03-13T16:52:21.992Z,1.08
2023-03-13T16:53:59.581Z,1.13
2023-03-13T16:55:36.591Z,1.80
2023-03-13T16:57:12.811Z,1.33
2023-03-13T16:58:47.066Z,4.07
2023-03-13T17:00:23.898Z,0.88
2023-03-13T17:01:57.103Z,1.70
2023-03-13T17:03:30.188Z,1.38
2023-03-13T17:05:03.333Z,2.30
2023-03-13T17:06:38.962Z,1.05
2023-03-13T17:08:15.452Z,1.38
2023-03-13T17:09:48.815Z,1.20
2023-03-13T17:11:24.069Z,2.35
2023-03-13T17:12:58.129Z,1.50
2023-03-13T17:14:31.484Z,2.42
2023-03-13T17:16:04.867Z,1.13
2023-03-13T17:17:39.035Z,1.10
2023-03-13T17:19:15.351Z,1.98
2023-03-13T17:20:51.048Z,1.48
2023-03-13T17:22:24.285Z,2.05
2023-03-13T17:23:58.221Z,2.30
2023-03-13T17:25:31.816Z,1.63
2023-03-13T17:27:11.164Z,1.30
2023-03-13T17:28:45.220Z,1.85
2023-03-13T17:30:26.223Z,2.75
2023-03-13T17:31:59.331Z,1.75
2023-03-13T17:33:32.498Z,2.08
2023-03-13T17:35:06.965Z,1.10
2023-03-13T17:36:41.007Z,1.17
2023-03-13T17:38:14.101Z,2.83
2023-03-13T17:39:49.194Z,1.48
2023-03-13T17:41:25.503Z,2.85
2023-03-13T17:43:00.059Z,1.77
2023-03-13T17:44:33.235Z,3.60
2023-03-13T17:46:16.804Z,2.08
2023-03-13T17:47:50.243Z,2.40
2023-03-13T17:49:23.652Z,2.70
2023-03-13T17:50:56.723Z,2.08
2023-03-13T17:52:30.093Z,2.00
2023-03-13T17:54:03.881Z,3.65
2023-03-13T17:55:37.102Z,6.75
2023-03-13T17:57:16.471Z,4.03
2023-03-13T17:58:54.532Z,4.47
2023-03-13T18:00:31.614Z,6.03
2023-03-13T18:02:04.807Z,4.82
2023-03-13T18:03:37.885Z,4.20
2023-03-13T18:05:11.262Z,3.35
2023-03-13T18:06:47.305Z,4.45
2023-03-13T18:08:20.843Z,3.47
2023-03-13T18:09:54.084Z,3.70
2023-03-13T18:11:28.090Z,4.07
2023-03-13T18:13:01.214Z,3.10
2023-03-13T18:14:37.702Z,2.58
2023-03-13T18:16:20.496Z,1.98
2023-03-13T18:17:54.610Z,3.40
2023-03-13T18:19:28.592Z,2.42
2023-03-13T18:21:01.781Z,2.83
2023-03-13T18:22:34.868Z,6.85
2023-03-13T18:24:08.257Z,2.38
2023-03-13T18:25:41.549Z,3.17
2023-03-13T18:27:18.067Z,2.10
2023-03-13T18:28:52.425Z,2.25
2023-03-13T18:30:28.491Z,2.30
2023-03-13T18:32:01.742Z,2.35
2023-03-13T18:33:34.904Z,1.90
2023-03-13T18:35:09.233Z,1.33
2023-03-13T18:36:43.225Z,1.67
2023-03-13T18:38:18.747Z,2.58
2023-03-13T18:39:52.213Z,1.70
2023-03-13T18:41:26.611Z,1.40
2023-03-13T18:43:00.249Z,3.25
2023-03-13T18:44:33.614Z,2.55
2023-03-13T18:46:15.586Z,1.77
2023-03-13T18:47:49.360Z,2.90
2023-03-13T18:49:24.694Z,2.22
2023-03-13T18:50:57.987Z,2.53
2023-03-13T18:52:31.760Z,2.00
2023-03-13T18:54:05.383Z,2.20
2023-03-13T18:55:38.646Z,4.25
2023-03-13T18:57:15.155Z,3.35
2023-03-13T18:58:50.678Z,2.15
2023-03-13T19:00:27.235Z,2.17
2023-03-13T19:02:01.930Z,3.20
2023-03-13T19:03:35.316Z,1.73
2023-03-13T19:05:09.902Z,2.17
2023-03-13T19:06:43.625Z,4.32
2023-03-13T19:08:16.872Z,3.10
2023-03-13T19:09:50.420Z,1.67
2023-03-13T19:11:27.079Z,3.15
2023-03-13T19:13:00.581Z,1.30
2023-03-13T19:14:35.070Z,2.38
2023-03-13T19:16:19.203Z,4.47
2023-03-13T19:17:56.338Z,3.17
2023-03-13T19:19:31.822Z,2.15
2023-03-13T19:21:10.111Z,2.17
2023-03-13T19:22:43.559Z,2.33
2023-03-13T19:24:17.433Z,4.43
2023-03-13T19:25:52.615Z,2.92
2023-03-13T19:27:26.241Z,4.70
2023-03-13T19:29:00.565Z,1.48
2023-03-13T19:30:33.743Z,2.10
2023-03-13T19:32:08.186Z,1.88
2023-03-13T19:33:42.828Z,2.67
2023-03-13T19:35:18.701Z,1.40
2023-03-13T19:36:53.312Z,1.95
2023-03-13T19:38:26.408Z,3.78
2023-03-13T19:39:59.591Z,3.00
2023-03-13T19:41:33.103Z,3.28
2023-03-13T19:44:35.862Z,2.75
2023-03-13T19:46:31.162Z,3.30
2023-03-13T19:48:04.444Z,1.23
2023-03-13T19:49:37.721Z,1.88
2023-03-13T19:51:11.140Z,2.08
2023-03-13T19:52:45.405Z,2.95
2023-03-13T19:54:18.708Z,2.65
2023-03-13T19:55:51.852Z,1.50
2023-03-13T19:57:25.092Z,1.92
2023-03-13T19:59:00.785Z,1.23
2023-03-13T20:00:37.381Z,1.77
2023-03-13T20:02:12.450Z,1.27
2023-03-13T20:03:47.079Z,3.65
2023-03-13T20:05:20.492Z,3.65
2023-03-13T20:06:54.096Z,2.65
2023-03-13T20:08:27.239Z,1.70
2023-03-13T20:10:00.673Z,3.25
2023-03-13T20:11:34.590Z,2.65
2023-03-13T20:13:07.701Z,2.55
2023-03-13T20:14:40.807Z,3.63
2023-03-13T20:16:15.914Z,3.03
2023-03-13T20:17:48.984Z,2.38
2023-03-13T20:19:23.884Z,1.60
2023-03-13T20:20:57.147Z,2.55
2023-03-13T20:22:30.437Z,1.55
2023-03-13T20:24:04.190Z,2.33
2023-03-13T20:25:37.437Z,6.90
2023-03-13T20:27:10.507Z,2.67
2023-03-13T20:28:46.585Z,3.00
2023-03-13T20:30:19.999Z,1.60
2023-03-13T20:31:54.515Z,2.42
2023-03-13T20:33:27.744Z,2.88
2023-03-13T20:35:00.959Z,2.38
2023-03-13T20:36:34.190Z,2.45
2023-03-13T20:38:08.059Z,1.90
2023-03-13T20:39:41.781Z,1.85
2023-03-13T20:41:16.157Z,3.25
2023-03-13T20:42:49.577Z,2.35
2023-03-13T20:44:22.920Z,2.80
2023-03-13T20:45:56.473Z,3.05
2023-03-13T20:47:30.973Z,2.60
2023-03-13T20:49:04.191Z,2.53
2023-03-13T20:50:37.637Z,1.92
2023-03-13T20:52:10.781Z,4.20
2023-03-13T20:53:44.639Z,4.53
2023-03-13T20:55:18.654Z,5.90
2023-03-13T20:56:51.873Z,3.55
2023-03-13T20:58:25.020Z,2.45
2023-03-13T20:59:58.126Z,2.28
2023-03-13T21:01:32.398Z,3.22
2023-03-13T21:03:06.994Z,2.70
2023-03-13T21:04:40.224Z,2.13
2023-03-13T21:06:16.240Z,2.03
2023-03-13T21:07:49.416Z,2.28
2023-03-13T21:09:22.480Z,2.08
2023-03-13T21:10:55.569Z,2.58
2023-03-13T21:12:29.056Z,1.85
2023-03-13T21:14:02.227Z,1.75
2023-03-13T21:15:35.625Z,3.22
2023-03-13T21:17:10.636Z,2.10
2023-03-13T21:18:45.262Z,3.50
2023-03-13T21:20:18.481Z,1.60
2023-03-13T21:21:52.084Z,1.88
2023-03-13T21:23:25.176Z,1.35
2023-03-13T21:24:58.334Z,3.45
2023-03-13T21:26:32.207Z,2.67
2023-03-13T21:28:05.729Z,2.38
2023-03-13T21:29:38.795Z,3.25
2023-03-13T21:31:14.057Z,2.45
2023-03-13T21:32:48.465Z,3.22
2023-03-13T21:34:22.936Z,2.28
2023-03-13T21:35:56.110Z,1.23
2023-03-13T21:37:29.386Z,2.17
2023-03-13T21:39:02.624Z,1.63
2023-03-13T21:40:35.926Z,2.25
2023-03-13T21:42:10.341Z,1.98
2023-03-13T21:43:44.409Z,1.58
2023-03-13T21:45:17.967Z,2.33
2023-03-13T21:46:51.684Z,1.80
2023-03-13T21:48:24.929Z,2.13
2023-03-13T21:50:00.522Z,2.30
2023-03-13T21:51:34.089Z,3.30
2023-03-13T21:53:07.175Z,2.78
2023-03-13T21:54:40.376Z,2.67
2023-03-13T21:56:15.461Z,3.50
2023-03-13T21:57:48.595Z,2.10
2023-03-13T21:59:25.047Z,3.10
2023-03-13T22:00:59.086Z,2.58
2023-03-13T22:02:32.148Z,4.45
2023-03-13T22:04:05.928Z,2.63
2023-03-13T22:05:43.487Z,1.73
2023-03-13T22:07:16.664Z,2.08
2023-03-13T22:08:50.952Z,2.47
2023-03-13T22:10:24.286Z,2.08
2023-03-13T22:11:57.437Z,2.15
2023-03-13T22:13:30.566Z,1.95
2023-03-13T22:15:03.921Z,2.70